Time;durP1;ratioP1;P1;durP2;ratioP2;P2;SDS_P1;SDS_P2;PMS_P1;PMS_P2;Temp;Humidity;BMP_temperature;BMP_pressure;BME280_temperature;BME280_humidity;BME280_pressure;Samples;Min_cycle;Max_cycle;Signal;HPM_P1;HPM_P2
2023/01/11 00:01:12;0.00;0.00;0.62;0.00;0.00;0.62;1.90;0.80;;;22.20;26.70;;;;;;2252933;61;20418;-59
2023/01/11 00:03:57;0.00;0.00;0.62;0.00;0.00;0.62;1.50;0.87;;;22.20;26.70;;;;;;2252106;61;20362;-59
2023/01/11 00:06:42;0.00;0.00;0.62;0.00;0.00;0.62;1.53;0.70;;;22.20;26.80;;;;;;2252268;61;20387;-63
2023/01/11 00:09:27;0.00;0.00;0.62;0.00;0.00;0.62;2.67;1.17;;;22.20;26.80;;;;;;2252501;61;20410;-63
2023/01/11 00:12:13;0.00;0.00;0.62;0.00;0.00;0.62;1.57;0.77;;;22.20;26.80;;;;;;2251902;61;20386;-63
2023/01/11 00:15:12;0.00;0.00;0.62;0.00;0.00;0.62;1.70;0.80;;;22.20;27.30;;;;;;2252521;61;20363;-63
2023/01/11 00:17:58;0.00;0.00;0.62;0.00;0.00;0.62;1.90;1.00;;;22.20;26.80;;;;;;2252695;61;21142;-60
2023/01/11 00:20:43;0.00;0.00;0.62;0.00;0.00;0.62;1.63;0.77;;;22.30;26.90;;;;;;2252262;61;20379;-63
2023/01/11 00:23:28;0.00;0.00;0.62;0.00;0.00;0.62;1.93;0.80;;;22.30;26.90;;;;;;2252491;61;20378;-61
2023/01/11 00:26:14;0.00;0.00;0.62;0.00;0.00;0.62;1.30;0.70;;;22.20;26.80;;;;;;2251451;61;20904;-62
2023/01/11 00:28:58;0.00;0.00;0.62;0.00;0.00;0.62;1.83;0.80;;;22.20;26.80;;;;;;2252411;61;20494;-62
2023/01/11 00:31:44;0.00;0.00;0.62;0.00;0.00;0.62;2.43;1.00;;;22.20;26.80;;;;;;2252611;61;20386;-62
2023/01/11 00:34:29;0.00;0.00;0.62;0.00;0.00;0.62;1.60;0.70;;;22.20;26.80;;;;;;2251992;61;20358;-62
2023/01/11 00:37:13;0.00;0.00;0.62;0.00;0.00;0.62;1.40;0.80;;;22.20;26.80;;;;;;2252173;61;20414;-61
2023/01/11 00:39:58;0.00;0.00;0.62;0.00;0.00;0.62;1.63;0.80;;;22.20;26.80;;;;;;2252885;61;20761;-62
2023/01/11 00:48:51;0.00;0.00;0.62;0.00;0.00;0.62;1.30;0.70;;;22.30;26.80;;;;;;2252247;61;20865;-62
2023/01/11 00:51:36;0.00;0.00;0.62;0.00;0.00;0.62;1.37;0.70;;;22.20;26.80;;;;;;2252655;61;20398;-60
2023/01/11 00:54:21;0.00;0.00;0.62;0.00;0.00;0.62;1.60;0.70;;;22.20;26.80;;;;;;2253151;61;20426;-62
2023/01/11 00:57:06;0.00;0.00;0.62;0.00;0.00;0.62;1.60;0.80;;;22.20;26.80;;;;;;2254332;61;20370;-66
2023/01/11 00:59:51;0.00;0.00;0.62;0.00;0.00;0.62;1.43;0.70;;;22.20;26.90;;;;;;2252769;61;20863;-70
2023/01/11 01:02:36;0.00;0.00;0.62;0.00;0.00;0.62;2.33;0.90;;;22.20;27.00;;;;;;2252485;61;20916;-64
2023/01/11 01:05:22;0.00;0.00;0.62;0.00;0.00;0.62;1.30;0.70;;;22.20;27.00;;;;;;2252640;61;20421;-65
2023/01/11 01:08:07;0.00;0.00;0.62;0.00;0.00;0.62;1.30;0.60;;;22.20;27.10;;;;;;2252691;61;20398;-64
2023/01/11 01:10:52;0.00;0.00;0.62;0.00;0.00;0.62;2.43;1.10;;;22.20;27.10;;;;;;2252213;61;20927;-66
2023/01/11 01:16:41;0.00;0.00;0.62;0.00;0.00;0.62;1.30;0.70;;;22.20;27.00;;;;;;2252629;61;20390;-66
2023/01/11 01:19:26;0.00;0.00;0.62;0.00;0.00;0.62;1.63;0.80;;;22.20;27.00;;;;;;2251488;61;20461;-66
2023/01/11 01:22:12;0.00;0.00;0.62;0.00;0.00;0.62;1.83;0.90;;;22.20;27.00;;;;;;2252481;61;20402;-66
2023/01/11 01:24:57;0.00;0.00;0.62;0.00;0.00;0.62;1.40;0.73;;;22.30;27.00;;;;;;2251903;61;20378;-68
2023/01/11 01:27:42;0.00;0.00;0.62;0.00;0.00;0.62;1.30;0.70;;;22.30;27.00;;;;;;2251773;61;20455;-65
2023/01/11 01:30:26;0.00;0.00;0.62;0.00;0.00;0.62;1.20;0.60;;;22.30;27.00;;;;;;2252598;61;20363;-67
2023/01/11 01:33:11;0.00;0.00;0.62;0.00;0.00;0.62;1.30;0.70;;;22.30;27.00;;;;;;2251740;61;20881;-65
2023/01/11 01:35:55;0.00;0.00;0.62;0.00;0.00;0.62;1.43;0.70;;;22.30;27.00;;;;;;2252026;61;20451;-65
2023/01/11 01:38:41;0.00;0.00;0.62;0.00;0.00;0.62;1.20;0.60;;;22.30;27.00;;;;;;2252637;61;20362;-65
2023/01/11 01:41:26;0.00;0.00;0.62;0.00;0.00;0.62;1.43;0.70;;;22.30;26.90;;;;;;2251862;61;20510;-65
2023/01/11 01:44:52;0.00;0.00;0.62;0.00;0.00;0.62;2.20;0.70;;;22.30;26.90;;;;;;2252509;61;20870;-65
2023/01/11 01:47:46;0.00;0.00;0.62;0.00;0.00;0.62;2.30;0.87;;;22.30;26.90;;;;;;2251502;61;20824;-64
2023/01/11 01:50:39;0.00;0.00;0.62;0.00;0.00;0.62;1.40;0.80;;;22.30;26.90;;;;;;2252160;61;20367;-65
2023/01/11 01:53:30;0.00;0.00;0.62;0.00;0.00;0.62;1.50;0.90;;;22.30;26.90;;;;;;2252437;61;20804;-65
2023/01/11 01:56:24;0.00;0.00;0.62;0.00;0.00;0.62;1.63;0.80;;;22.30;26.90;;;;;;2252068;61;20421;-65
2023/01/11 01:59:12;0.00;0.00;0.62;0.00;0.00;0.62;1.60;0.77;;;22.30;26.70;;;;;;2252590;61;20375;-65
2023/01/11 02:01:56;0.00;0.00;0.62;0.00;0.00;0.62;1.90;1.00;;;22.20;26.50;;;;;;2252130;61;20445;-65
2023/01/11 02:04:43;0.00;0.00;0.62;0.00;0.00;0.62;1.53;0.93;;;22.20;26.30;;;;;;2252279;61;20494;-65
2023/01/11 02:07:32;0.00;0.00;0.62;0.00;0.00;0.62;1.40;0.80;;;22.20;26.20;;;;;;2252492;61;20749;-66
2023/01/11 02:10:20;0.00;0.00;0.62;0.00;0.00;0.62;1.90;1.00;;;22.10;26.10;;;;;;2251880;61;20887;-65
2023/01/11 02:13:09;0.00;0.00;0.62;0.00;0.00;0.62;1.63;0.90;;;22.10;26.10;;;;;;2252033;61;20930;-65
2023/01/11 02:16:07;0.00;0.00;0.62;0.00;0.00;0.62;2.80;0.97;;;22.00;25.90;;;;;;2252591;61;20941;-66
2023/01/11 02:18:53;0.00;0.00;0.62;0.00;0.00;0.62;2.27;1.00;;;22.00;25.90;;;;;;2251579;61;20411;-64
2023/01/11 02:21:53;0.00;0.00;0.62;0.00;0.00;0.62;3.13;1.27;;;21.90;25.80;;;;;;2252566;61;20784;-63
2023/01/11 02:25:36;0.00;0.00;0.62;0.00;0.00;0.62;1.90;1.00;;;21.90;25.70;;;;;;2251502;61;20363;-62
2023/01/11 02:28:29;0.00;0.00;0.62;0.00;0.00;0.62;2.20;0.87;;;21.80;25.50;;;;;;2249621;61;20394;-62
2023/01/11 02:31:27;0.00;0.00;0.62;0.00;0.00;0.62;3.10;1.00;;;21.70;25.40;;;;;;2252208;61;20413;-61
2023/01/11 02:34:32;0.00;0.00;0.62;0.00;0.00;0.62;2.90;1.00;;;21.60;25.40;;;;;;2251922;61;20386;-62
2023/01/11 02:37:30;0.00;0.00;0.62;0.00;0.00;0.62;1.80;0.80;;;21.50;25.40;;;;;;2252105;61;20362;-63
2023/01/11 02:40:24;0.00;0.00;0.62;0.00;0.00;0.62;2.20;0.70;;;21.40;25.40;;;;;;2251411;61;20414;-64
2023/01/11 02:46:30;0.00;0.00;0.62;0.00;0.00;0.62;1.50;0.80;;;21.30;25.50;;;;;;2251822;61;20363;-64
2023/01/11 02:49:28;0.00;0.00;0.62;0.00;0.00;0.62;1.77;1.03;;;21.20;25.50;;;;;;2252153;61;20417;-63
2023/01/11 02:52:20;0.00;0.00;0.62;0.00;0.00;0.62;2.60;1.40;;;21.10;25.50;;;;;;2252303;61;20390;-61
2023/01/11 02:55:08;0.00;0.00;0.62;0.00;0.00;0.62;1.60;1.03;;;21.00;25.60;;;;;;2251537;61;20367;-62
2023/01/11 02:57:57;0.00;0.00;0.62;0.00;0.00;0.62;2.80;1.00;;;21.00;25.70;;;;;;2251968;61;20398;-61
2023/01/11 03:00:43;0.00;0.00;0.62;0.00;0.00;0.62;1.90;1.00;;;20.90;25.70;;;;;;2251818;61;20966;-64
2023/01/11 03:03:32;0.00;0.00;0.62;0.00;0.00;0.62;1.60;0.80;;;20.90;25.70;;;;;;2251667;61;20827;-61
2023/01/11 03:06:21;0.00;0.00;0.62;0.00;0.00;0.62;1.60;0.93;;;20.80;25.80;;;;;;2252417;61;20415;-64
2023/01/11 03:09:18;0.00;0.00;0.62;0.00;0.00;0.62;2.00;0.90;;;20.80;25.90;;;;;;2251593;61;20385;-61
2023/01/11 03:15:47;0.00;0.00;0.62;0.00;0.00;0.62;2.37;1.10;;;20.70;25.90;;;;;;2252013;61;20386;-63
2023/01/11 03:18:45;0.00;0.00;0.62;0.00;0.00;0.62;1.80;0.97;;;20.70;26.00;;;;;;2254266;61;20416;-61
2023/01/11 03:22:02;0.00;0.00;0.62;0.00;0.00;0.62;2.00;0.97;;;20.60;25.90;;;;;;2256090;61;20436;-61
2023/01/11 03:24:54;0.00;0.00;0.62;0.00;0.00;0.62;3.10;1.00;;;20.50;25.90;;;;;;2255700;61;20775;-62
2023/01/11 03:27:49;0.00;0.00;0.62;0.00;0.00;0.62;1.33;0.83;;;20.50;25.90;;;;;;2256055;61;20882;-62
2023/01/11 03:30:46;0.00;0.00;0.62;0.00;0.00;0.62;1.73;0.80;;;20.40;26.00;;;;;;2256431;61;20413;-62
2023/01/11 03:33:39;0.00;0.00;0.62;0.00;0.00;0.62;1.87;0.80;;;20.40;26.00;;;;;;2255477;61;20401;-64
2023/01/11 03:36:33;0.00;0.00;0.62;0.00;0.00;0.62;2.07;1.23;;;20.40;26.20;;;;;;2256230;61;20823;-61
2023/01/11 03:39:26;0.00;0.00;0.62;0.00;0.00;0.62;1.77;1.03;;;20.30;26.10;;;;;;2255082;61;20428;-61
2023/01/11 03:42:18;0.00;0.00;0.62;0.00;0.00;0.62;2.40;0.90;;;20.30;26.20;;;;;;2256063;61;20440;-60
2023/01/11 03:45:04;0.00;0.00;0.62;0.00;0.00;0.62;1.67;0.97;;;20.30;26.20;;;;;;2256177;61;20362;-61
2023/01/11 03:47:52;0.00;0.00;0.62;0.00;0.00;0.62;1.73;0.80;;;20.20;26.20;;;;;;2255498;61;20377;-67
2023/01/11 03:50:40;0.00;0.00;0.62;0.00;0.00;0.62;2.37;0.97;;;20.20;26.30;;;;;;2256121;61;20362;-60
2023/01/11 03:53:28;0.00;0.00;0.62;0.00;0.00;0.62;1.73;1.03;;;20.10;26.20;;;;;;2255404;61;20394;-62
2023/01/11 03:56:18;0.00;0.00;0.62;0.00;0.00;0.62;1.70;1.00;;;20.10;26.30;;;;;;2256156;61;20876;-62
2023/01/11 03:59:03;0.00;0.00;0.62;0.00;0.00;0.62;2.53;1.03;;;20.10;26.40;;;;;;2256920;61;20833;-61
2023/01/11 04:01:48;0.00;0.00;0.62;0.00;0.00;0.62;1.83;0.83;;;20.00;26.30;;;;;;2256298;61;20972;-60
2023/01/11 04:04:32;0.00;0.00;0.62;0.00;0.00;0.62;1.70;0.97;;;20.00;26.50;;;;;;2256232;61;20561;-61
2023/01/11 04:07:19;0.00;0.00;0.62;0.00;0.00;0.62;1.83;0.90;;;19.90;26.50;;;;;;2256549;61;20388;-59
2023/01/11 04:10:05;0.00;0.00;0.62;0.00;0.00;0.62;1.30;0.80;;;19.90;26.50;;;;;;2256509;61;20416;-59
2023/01/11 04:12:50;0.00;0.00;0.62;0.00;0.00;0.62;1.60;0.80;;;19.90;26.50;;;;;;2256208;61;20847;-61
2023/01/11 04:15:35;0.00;0.00;0.62;0.00;0.00;0.62;2.30;0.90;;;19.80;26.50;;;;;;2256308;61;20412;-61
2023/01/11 04:18:20;0.00;0.00;0.62;0.00;0.00;0.62;1.77;0.90;;;19.80;26.50;;;;;;2256306;61;20404;-63
2023/01/11 04:21:05;0.00;0.00;0.62;0.00;0.00;0.62;1.50;0.90;;;19.80;26.50;;;;;;2256616;61;20366;-62
2023/01/11 04:23:51;0.00;0.00;0.62;0.00;0.00;0.62;1.70;1.00;;;19.80;26.70;;;;;;2256146;61;20412;-61
2023/01/11 04:26:35;0.00;0.00;0.62;0.00;0.00;0.62;2.17;1.10;;;19.70;26.70;;;;;;2256334;61;20413;-62
2023/01/11 04:29:20;0.00;0.00;0.62;0.00;0.00;0.62;2.03;1.17;;;19.70;26.70;;;;;;2256733;61;20362;-62
2023/01/11 04:32:05;0.00;0.00;0.62;0.00;0.00;0.62;1.40;0.80;;;19.70;26.80;;;;;;2255902;61;20901;-62
2023/01/11 04:34:51;0.00;0.00;0.62;0.00;0.00;0.62;1.37;0.80;;;19.60;26.80;;;;;;2256441;61;20889;-62
2023/01/11 04:37:35;0.00;0.00;0.62;0.00;0.00;0.62;1.57;0.90;;;19.60;26.90;;;;;;2255564;61;20365;-63
2023/01/11 04:40:22;0.00;0.00;0.62;0.00;0.00;0.62;1.60;0.90;;;19.60;27.00;;;;;;2256079;61;20377;-62
2023/01/11 04:43:07;0.00;0.00;0.62;0.00;0.00;0.62;1.97;0.90;;;19.50;27.00;;;;;;2256725;61;20425;-58
2023/01/11 04:45:57;0.00;0.00;0.62;0.00;0.00;0.62;2.00;1.00;;;19.50;27.00;;;;;;2256285;61;20840;-62
2023/01/11 04:48:42;0.00;0.00;0.62;0.00;0.00;0.62;3.40;1.10;;;19.50;27.10;;;;;;2256017;61;20505;-58
2023/01/11 04:51:27;0.00;0.00;0.62;0.00;0.00;0.62;2.00;0.90;;;19.50;27.20;;;;;;2256398;61;20430;-59
2023/01/11 04:54:11;0.00;0.00;0.62;0.00;0.00;0.62;1.50;0.90;;;19.50;27.30;;;;;;2255773;61;20486;-61
2023/01/11 04:56:58;0.00;0.00;0.62;0.00;0.00;0.62;1.50;0.80;;;19.40;27.30;;;;;;2256245;61;20400;-59
2023/01/11 04:59:45;0.00;0.00;0.62;0.00;0.00;0.62;1.50;0.90;;;19.40;27.40;;;;;;2256069;61;20378;-67
2023/01/11 05:02:30;0.00;0.00;0.62;0.00;0.00;0.62;1.40;0.80;;;19.40;27.40;;;;;;2256209;61;20385;-61
2023/01/11 05:05:15;0.00;0.00;0.62;0.00;0.00;0.62;1.50;1.00;;;19.40;27.40;;;;;;2256602;61;20366;-61
2023/01/11 05:07:59;0.00;0.00;0.62;0.00;0.00;0.62;3.60;1.40;;;19.30;27.50;;;;;;2255337;61;20816;-63
2023/01/11 05:10:51;0.00;0.00;0.62;0.00;0.00;0.62;1.90;1.27;;;19.30;27.60;;;;;;2255722;61;20361;-63
2023/01/11 05:13:40;0.00;0.00;0.62;0.00;0.00;0.62;1.60;0.83;;;19.30;27.70;;;;;;2256375;61;20389;-65
2023/01/11 05:16:25;0.00;0.00;0.62;0.00;0.00;0.62;2.80;1.00;;;19.20;27.70;;;;;;2255209;61;20393;-64
2023/01/11 05:19:10;0.00;0.00;0.62;0.00;0.00;0.62;1.50;0.90;;;19.20;27.80;;;;;;2256585;61;20361;-61
2023/01/11 05:21:55;0.00;0.00;0.62;0.00;0.00;0.62;1.50;0.80;;;19.20;27.90;;;;;;2255901;61;20389;-63
2023/01/11 05:24:40;0.00;0.00;0.62;0.00;0.00;0.62;1.53;0.80;;;19.10;27.90;;;;;;2256095;61;20361;-64
2023/01/11 05:27:24;0.00;0.00;0.62;0.00;0.00;0.62;1.63;0.93;;;19.10;28.00;;;;;;2256446;61;20413;-61
2023/01/11 05:30:12;0.00;0.00;0.62;0.00;0.00;0.62;2.07;1.00;;;19.00;28.00;;;;;;2255795;61;20369;-66
2023/01/11 05:32:56;0.00;0.00;0.62;0.00;0.00;0.62;1.50;1.10;;;19.00;28.20;;;;;;2256196;61;20908;-64
2023/01/11 05:35:41;0.00;0.00;0.62;0.00;0.00;0.62;1.97;1.03;;;19.00;28.20;;;;;;2256764;61;20445;-61
2023/01/11 05:38:26;0.00;0.00;0.62;0.00;0.00;0.62;1.57;0.80;;;18.90;28.30;;;;;;2255526;61;20373;-67
2023/01/11 05:41:11;0.00;0.00;0.62;0.00;0.00;0.62;1.40;0.80;;;18.90;28.30;;;;;;2256456;61;20378;-64
2023/01/11 05:47:00;0.00;0.00;0.62;0.00;0.00;0.62;1.90;1.00;;;18.90;28.50;;;;;;2255681;61;20362;-65
2023/01/11 05:49:45;0.00;0.00;0.62;0.00;0.00;0.62;1.40;0.80;;;18.80;28.50;;;;;;2256659;61;20782;-62
2023/01/11 05:52:30;0.00;0.00;0.62;0.00;0.00;0.62;2.00;0.90;;;18.80;28.60;;;;;;2255812;61;20425;-67
2023/01/11 05:55:15;0.00;0.00;0.62;0.00;0.00;0.62;1.63;0.87;;;18.80;28.70;;;;;;2256005;61;20369;-64
2023/01/11 05:57:59;0.00;0.00;0.62;0.00;0.00;0.62;1.53;0.90;;;18.70;28.70;;;;;;2256378;61;20458;-63
2023/01/11 06:00:47;0.00;0.00;0.62;0.00;0.00;0.62;1.80;1.03;;;18.70;28.80;;;;;;2255432;61;20906;-64
2023/01/11 06:03:33;0.00;0.00;0.62;0.00;0.00;0.62;1.80;0.90;;;18.70;28.90;;;;;;2255983;61;20385;-66
2023/01/11 06:06:19;0.00;0.00;0.62;0.00;0.00;0.62;1.80;1.07;;;18.70;28.90;;;;;;2255947;61;20417;-65
2023/01/11 06:09:04;0.00;0.00;0.62;0.00;0.00;0.62;1.70;0.90;;;18.60;29.00;;;;;;2256158;61;20381;-65
2023/01/11 06:11:49;0.00;0.00;0.62;0.00;0.00;0.62;1.77;1.13;;;18.60;29.10;;;;;;2256353;61;20898;-67
2023/01/11 06:14:34;0.00;0.00;0.62;0.00;0.00;0.62;1.40;0.80;;;18.60;29.20;;;;;;2255606;61;20444;-66
2023/01/11 06:17:19;0.00;0.00;0.62;0.00;0.00;0.62;2.70;0.90;;;18.50;29.10;;;;;;2256043;61;20369;-65
2023/01/11 06:20:08;0.00;0.00;0.62;0.00;0.00;0.62;1.93;1.10;;;18.60;29.30;;;;;;2256545;61;20389;-66
2023/01/11 06:22:52;0.00;0.00;0.62;0.00;0.00;0.62;1.60;0.90;;;18.50;29.30;;;;;;2255550;61;20443;-67
2023/01/11 06:25:37;0.00;0.00;0.62;0.00;0.00;0.62;1.70;0.80;;;18.50;29.40;;;;;;2256550;61;20983;-66
2023/01/11 06:28:22;0.00;0.00;0.62;0.00;0.00;0.62;4.53;1.00;;;18.50;29.50;;;;;;2255564;61;20929;-65
2023/01/11 06:31:07;0.00;0.00;0.62;0.00;0.00;0.62;1.70;0.80;;;18.50;29.60;;;;;;2255930;61;20446;-65
2023/01/11 06:33:52;0.00;0.00;0.62;0.00;0.00;0.62;1.43;0.80;;;18.50;29.60;;;;;;2256457;61;20468;-65
2023/01/11 06:36:38;0.00;0.00;0.62;0.00;0.00;0.62;1.80;1.00;;;18.40;29.50;;;;;;2255726;61;20370;-66
2023/01/11 06:39:23;0.00;0.00;0.62;0.00;0.00;0.62;3.50;1.00;;;18.50;29.70;;;;;;2256039;61;20787;-65
2023/01/11 06:42:08;0.00;0.00;0.62;0.00;0.00;0.62;1.50;0.80;;;18.50;29.80;;;;;;2255837;61;20381;-65
2023/01/11 06:44:52;0.00;0.00;0.62;0.00;0.00;0.62;1.53;0.70;;;18.50;29.70;;;;;;2255198;61;20361;-66
2023/01/11 06:47:37;0.00;0.00;0.62;0.00;0.00;0.62;1.60;0.90;;;18.50;29.70;;;;;;2256173;61;20417;-68
2023/01/11 06:50:21;0.00;0.00;0.62;0.00;0.00;0.62;1.40;0.80;;;18.50;29.80;;;;;;2256126;61;20441;-65
2023/01/11 06:53:07;0.00;0.00;0.62;0.00;0.00;0.62;2.03;0.80;;;18.50;29.80;;;;;;2255783;61;20393;-65
2023/01/11 06:55:54;0.00;0.00;0.62;0.00;0.00;0.62;1.53;0.80;;;18.50;29.80;;;;;;2256196;61;20915;-65
2023/01/11 06:58:38;0.00;0.00;0.62;0.00;0.00;0.62;2.93;1.10;;;18.50;29.80;;;;;;2254944;61;20946;-65
2023/01/11 07:01:24;0.00;0.00;0.62;0.00;0.00;0.62;1.40;0.80;;;18.50;29.80;;;;;;2255808;61;20369;-68
2023/01/11 07:04:09;0.00;0.00;0.62;0.00;0.00;0.62;1.40;0.90;;;18.50;29.80;;;;;;2256386;61;21211;-65
2023/01/11 07:06:55;0.00;0.00;0.62;0.00;0.00;0.62;1.30;0.70;;;18.50;29.80;;;;;;2254968;61;20365;-66
2023/01/11 07:09:41;0.00;0.00;0.62;0.00;0.00;0.62;1.30;0.70;;;18.50;29.80;;;;;;2256090;61;20398;-65
2023/01/11 07:12:26;0.00;0.00;0.62;0.00;0.00;0.62;1.83;0.87;;;18.50;29.80;;;;;;2256006;61;20420;-68
2023/01/11 07:15:11;0.00;0.00;0.62;0.00;0.00;0.62;1.50;0.90;;;18.50;29.80;;;;;;2255940;61;20413;-66
2023/01/11 07:17:58;0.00;0.00;0.62;0.00;0.00;0.62;1.50;0.80;;;18.60;29.90;;;;;;2256047;61;20465;-65
2023/01/11 07:20:43;0.00;0.00;0.62;0.00;0.00;0.62;1.47;0.80;;;18.60;29.90;;;;;;2255502;61;20462;-66
2023/01/11 07:23:27;0.00;0.00;0.62;0.00;0.00;0.62;1.40;0.73;;;18.60;29.90;;;;;;2255781;61;20830;-65
2023/01/11 07:26:15;0.00;0.00;0.62;0.00;0.00;0.62;1.60;0.80;;;18.60;29.90;;;;;;2256252;61;20649;-65
2023/01/11 07:29:00;0.00;0.00;0.62;0.00;0.00;0.62;3.93;1.00;;;18.60;29.90;;;;;;2255451;61;20436;-67
2023/01/11 07:31:46;0.00;0.00;0.62;0.00;0.00;0.62;2.80;1.00;;;18.60;29.90;;;;;;2256284;61;20400;-66
2023/01/11 07:34:30;0.00;0.00;0.62;0.00;0.00;0.62;1.67;0.77;;;18.60;29.90;;;;;;2256824;61;20825;-65
2023/01/11 07:37:15;0.00;0.00;0.62;0.00;0.00;0.62;1.27;0.70;;;18.70;30.00;;;;;;2255732;61;20361;-67
2023/01/11 07:40:00;0.00;0.00;0.62;0.00;0.00;0.62;1.37;0.73;;;18.70;30.00;;;;;;2256836;61;20377;-66
2023/01/11 07:43:10;0.00;0.00;0.62;0.00;0.00;0.62;2.33;0.80;;;18.70;30.00;;;;;;2256137;61;20386;-66
2023/01/11 07:45:56;0.00;0.00;0.62;0.00;0.00;0.62;1.50;0.80;;;18.70;30.00;;;;;;2256414;61;20370;-67
2023/01/11 07:48:41;0.00;0.00;0.62;0.00;0.00;0.62;1.50;0.83;;;18.70;30.00;;;;;;2256630;61;20393;-66
2023/01/11 07:51:25;0.00;0.00;0.62;0.00;0.00;0.62;1.30;0.70;;;18.70;30.00;;;;;;2256271;61;20405;-67
2023/01/11 07:54:10;0.00;0.00;0.62;0.00;0.00;0.62;1.30;0.70;;;18.70;30.00;;;;;;2256248;61;20474;-65
2023/01/11 07:56:55;0.00;0.00;0.62;0.00;0.00;0.62;1.30;0.70;;;18.70;30.00;;;;;;2256692;61;20374;-66
2023/01/11 07:59:41;0.00;0.00;0.62;0.00;0.00;0.62;1.30;0.60;;;18.70;30.00;;;;;;2256333;61;20420;-66
2023/01/11 08:02:26;0.00;0.00;0.62;0.00;0.00;0.62;1.40;0.70;;;18.70;30.00;;;;;;2256506;61;20418;-66
2023/01/11 08:05:10;0.00;0.00;0.62;0.00;0.00;0.62;1.60;0.70;;;18.80;30.10;;;;;;2256222;61;20405;-67
2023/01/11 08:07:55;0.00;0.00;0.62;0.00;0.00;0.62;1.70;1.13;;;18.80;30.10;;;;;;2256197;61;20448;-61
2023/01/11 08:10:40;0.00;0.00;0.62;0.00;0.00;0.62;1.33;0.73;;;18.80;30.10;;;;;;2256914;61;20405;-65
2023/01/11 08:16:30;0.00;0.00;0.62;0.00;0.00;0.62;1.60;0.70;;;18.80;30.10;;;;;;2256738;61;20446;-64
2023/01/11 08:19:14;0.00;0.00;0.62;0.00;0.00;0.62;1.97;0.80;;;18.80;30.10;;;;;;2256768;61;20373;-64
2023/01/11 08:21:59;0.00;0.00;0.62;0.00;0.00;0.62;1.70;0.83;;;18.80;30.20;;;;;;2257033;61;20385;-66
2023/01/11 08:24:44;0.00;0.00;0.62;0.00;0.00;0.62;1.40;0.73;;;18.80;30.10;;;;;;2256778;61;20373;-67
2023/01/11 08:27:28;0.00;0.00;0.62;0.00;0.00;0.62;1.73;0.80;;;18.80;30.20;;;;;;2251929;61;20750;-67
2023/01/11 08:30:13;0.00;0.00;0.62;0.00;0.00;0.62;1.40;0.80;;;18.90;30.30;;;;;;2251488;61;20466;-69
2023/01/11 08:33:01;0.00;0.00;0.62;0.00;0.00;0.62;2.60;0.90;;;18.90;30.40;;;;;;2252705;61;20546;-67
2023/01/11 08:35:46;0.00;0.00;0.62;0.00;0.00;0.62;1.30;0.70;;;18.90;30.40;;;;;;2252112;61;20398;-63
2023/01/11 08:38:31;0.00;0.00;0.62;0.00;0.00;0.62;3.13;0.70;;;18.90;30.40;;;;;;2252842;61;20410;-66
2023/01/11 08:41:15;0.00;0.00;0.62;0.00;0.00;0.62;1.90;0.90;;;18.90;30.40;;;;;;2256076;61;20471;-67
2023/01/11 08:44:00;0.00;0.00;0.62;0.00;0.00;0.62;1.47;0.77;;;18.90;30.40;;;;;;2256256;61;20365;-66
2023/01/11 08:46:45;0.00;0.00;0.62;0.00;0.00;0.62;1.40;0.70;;;18.90;30.50;;;;;;2256606;61;20897;-67
2023/01/11 08:49:31;0.00;0.00;0.62;0.00;0.00;0.62;1.50;0.80;;;18.90;30.70;;;;;;2256437;61;20404;-66
2023/01/11 08:52:16;0.00;0.00;0.62;0.00;0.00;0.62;1.50;0.70;;;18.90;30.50;;;;;;2256408;61;20425;-65
2023/01/11 08:55:00;0.00;0.00;0.62;0.00;0.00;0.62;1.60;0.80;;;18.90;30.60;;;;;;2256605;61;20397;-64
2023/01/11 08:57:45;0.00;0.00;0.62;0.00;0.00;0.62;1.73;0.93;;;19.00;30.70;;;;;;2255950;61;20771;-65
2023/01/11 09:00:30;0.00;0.00;0.62;0.00;0.00;0.62;2.03;0.80;;;19.00;30.70;;;;;;2256045;61;20434;-63
2023/01/11 09:03:15;0.00;0.00;0.62;0.00;0.00;0.62;1.40;0.70;;;19.00;30.70;;;;;;2256690;61;20386;-67
2023/01/11 09:05:43;0.00;0.00;0.62;0.00;0.00;0.62;1.80;0.83;;;19.00;30.70;;;;;;2255015;61;20355;-64
2023/01/11 09:08:28;0.00;0.00;0.62;0.00;0.00;0.62;2.23;0.80;;;19.00;30.70;;;;;;2256445;61;20378;-65
2023/01/11 09:14:16;0.00;0.00;0.62;0.00;0.00;0.62;1.90;0.90;;;19.00;30.70;;;;;;2256093;61;20439;-65
2023/01/11 09:17:01;0.00;0.00;0.62;0.00;0.00;0.62;1.50;0.70;;;19.00;30.70;;;;;;2256214;61;20365;-64
2023/01/11 09:19:46;0.00;0.00;0.62;0.00;0.00;0.62;1.30;0.60;;;19.00;30.80;;;;;;2255687;61;20362;-61
2023/01/11 09:22:33;0.00;0.00;0.62;0.00;0.00;0.62;2.07;0.70;;;19.10;30.80;;;;;;2253960;61;20469;-63
2023/01/11 09:25:18;0.00;0.00;0.62;0.00;0.00;0.62;1.90;0.87;;;19.10;30.80;;;;;;2256508;61;21000;-64
2023/01/11 09:28:03;0.00;0.00;0.62;0.00;0.00;0.62;1.63;0.70;;;19.10;30.90;;;;;;2255308;61;20424;-64
2023/01/11 09:30:51;0.00;0.00;0.62;0.00;0.00;0.62;1.67;0.90;;;19.10;30.80;;;;;;2255772;61;20393;-64
2023/01/11 09:33:38;0.00;0.00;0.62;0.00;0.00;0.62;1.50;0.70;;;19.20;30.90;;;;;;2255957;61;20414;-59
2023/01/11 09:36:25;0.00;0.00;0.62;0.00;0.00;0.62;4.03;0.90;;;19.10;30.80;;;;;;2255518;61;20370;-66
2023/01/11 09:39:14;0.00;0.00;0.62;0.00;0.00;0.62;1.60;0.77;;;19.20;31.00;;;;;;2252508;61;20362;-63
2023/01/11 09:42:26;0.00;0.00;0.62;0.00;0.00;0.62;1.80;0.80;;;19.20;31.00;;;;;;2255715;61;20436;-66
2023/01/11 09:45:17;0.00;0.00;0.62;0.00;0.00;0.62;1.40;0.70;;;19.20;31.00;;;;;;2255677;61;20952;-60
2023/01/11 09:48:11;0.00;0.00;0.62;0.00;0.00;0.62;1.40;0.67;;;19.20;31.00;;;;;;2255225;61;20459;-67
2023/01/11 09:50:57;0.00;0.00;0.62;0.00;0.00;0.62;1.37;0.70;;;19.20;31.00;;;;;;2255626;61;20397;-64
2023/01/11 09:53:49;0.00;0.00;0.62;0.00;0.00;0.62;1.60;0.73;;;19.30;31.10;;;;;;2254967;61;20424;-61
2023/01/11 09:56:46;0.00;0.00;0.62;0.00;0.00;0.62;1.20;0.63;;;19.30;31.80;;;;;;2255816;61;20854;-66
2023/01/11 09:59:43;0.00;0.00;0.62;0.00;0.00;0.62;1.43;0.70;;;19.30;31.00;;;;;;2255794;61;20980;-67
2023/01/11 10:02:43;0.00;0.00;0.62;0.00;0.00;0.62;1.30;0.73;;;19.30;31.10;;;;;;2255813;61;20428;-67
2023/01/11 10:05:52;0.00;0.00;0.62;0.00;0.00;0.62;1.20;0.60;;;19.30;31.10;;;;;;2255694;61;20762;-66
2023/01/11 10:08:57;0.00;0.00;0.62;0.00;0.00;0.62;1.87;0.70;;;19.30;31.10;;;;;;2255266;61;20361;-59
2023/01/11 10:12:00;0.00;0.00;0.62;0.00;0.00;0.62;1.90;0.83;;;19.30;31.10;;;;;;2255940;61;20429;-58
2023/01/11 10:15:05;0.00;0.00;0.62;0.00;0.00;0.62;1.30;0.70;;;19.30;31.10;;;;;;2255691;61;20478;-60
2023/01/11 10:18:22;0.00;0.00;0.62;0.00;0.00;0.62;1.20;0.60;;;19.30;31.20;;;;;;2255685;61;20374;-61
2023/01/11 10:21:13;0.00;0.00;0.62;0.00;0.00;0.62;1.70;0.60;;;19.30;31.20;;;;;;2255689;61;20441;-59
2023/01/11 10:24:03;0.00;0.00;0.62;0.00;0.00;0.62;1.30;0.60;;;19.40;31.30;;;;;;2255443;61;20455;-60
2023/01/11 10:26:56;0.00;0.00;0.62;0.00;0.00;0.62;1.30;0.60;;;19.40;31.30;;;;;;2255739;61;20370;-61
2023/01/11 10:30:10;0.00;0.00;0.62;0.00;0.00;0.62;1.40;0.70;;;19.40;31.20;;;;;;2255720;61;20601;-66
2023/01/11 10:33:17;0.00;0.00;0.62;0.00;0.00;0.62;1.30;0.67;;;19.40;31.20;;;;;;2255742;61;20398;-59
2023/01/11 10:42:21;0.00;0.00;0.62;0.00;0.00;0.62;1.33;0.70;;;19.40;31.30;;;;;;2256140;61;20417;-61
2023/01/11 10:45:15;0.00;0.00;0.62;0.00;0.00;0.62;1.20;0.70;;;19.40;31.30;;;;;;2255821;61;20454;-62
2023/01/11 10:48:06;0.00;0.00;0.62;0.00;0.00;0.62;1.27;0.60;;;19.40;31.30;;;;;;2256155;61;20374;-66
2023/01/11 10:51:02;0.00;0.00;0.62;0.00;0.00;0.62;1.53;0.80;;;19.40;31.30;;;;;;2255613;61;20890;-67
2023/01/11 10:53:59;0.00;0.00;0.62;0.00;0.00;0.62;1.60;0.70;;;19.40;31.40;;;;;;2255372;61;20417;-66
2023/01/11 10:57:02;0.00;0.00;0.62;0.00;0.00;0.62;1.67;0.70;;;19.50;31.50;;;;;;2255613;61;20504;-60
2023/01/11 11:00:08;0.00;0.00;0.62;0.00;0.00;0.62;1.40;0.70;;;19.50;31.60;;;;;;2255975;61;20444;-60
2023/01/11 11:03:36;0.00;0.00;0.62;0.00;0.00;0.62;1.50;0.70;;;19.50;31.50;;;;;;2256103;61;20401;-66
2023/01/11 11:06:33;0.00;0.00;0.62;0.00;0.00;0.62;1.20;0.60;;;19.50;31.50;;;;;;2256543;61;20416;-67
2023/01/11 11:09:26;0.00;0.00;0.62;0.00;0.00;0.62;1.40;0.70;;;19.50;31.40;;;;;;2256871;61;20361;-69
2023/01/11 11:12:17;0.00;0.00;0.62;0.00;0.00;0.62;1.27;0.60;;;19.60;31.50;;;;;;2256403;61;20552;-65
2023/01/11 11:15:12;0.00;0.00;0.62;0.00;0.00;0.62;1.90;0.80;;;19.60;31.40;;;;;;2256760;61;20389;-60
2023/01/11 11:17:57;0.00;0.00;0.62;0.00;0.00;0.62;1.50;0.70;;;19.60;31.20;;;;;;2256661;61;20373;-64
2023/01/11 11:20:43;0.00;0.00;0.62;0.00;0.00;0.62;1.30;0.70;;;19.70;31.20;;;;;;2256978;61;20910;-65
2023/01/11 11:23:29;0.00;0.00;0.62;0.00;0.00;0.62;1.40;0.70;;;19.70;31.10;;;;;;2257021;61;20918;-63
2023/01/11 11:26:14;0.00;0.00;0.62;0.00;0.00;0.62;1.40;0.73;;;19.70;30.90;;;;;;2256360;61;20365;-63
2023/01/11 11:29:01;0.00;0.00;0.62;0.00;0.00;0.62;1.40;0.80;;;19.80;30.80;;;;;;2257005;61;20341;-61
2023/01/11 11:31:49;0.00;0.00;0.62;0.00;0.00;0.62;1.40;0.70;;;19.80;30.80;;;;;;2256190;61;20439;-65
2023/01/11 11:34:34;0.00;0.00;0.62;0.00;0.00;0.62;1.70;0.80;;;19.90;30.70;;;;;;2256780;61;20389;-62
2023/01/11 11:37:25;0.00;0.00;0.62;0.00;0.00;0.62;1.20;0.60;;;19.90;30.60;;;;;;2256650;61;20416;-63